»·PEaware :: N1127M KPDX-KSEA

N1127M :: KPDX-KSEA

FLIGHT INFORMATION

Flight Status: Arrived
Operator: Privately registered:
United States
More flights under this callsign
Pilot: Marcelo S. (23897)
Aircraft: SOCATA TBM-900
(TBM9)
More flights by this aircraft type
Origin: KPDX Portland Intl
United States
Destination: KSEA Seattle-Tacoma Intl
United States
More flights between these airports :: More routes between these airports
Route: +
File this flight plan on PilotEdge
Remarks:
Altitude:
(Current/Filed)
0ft
Speed:
(Current/Filed)
0kts
Departed: 20-Jan-20 07:31 PM
Arrived: 20-Jan-20 08:06 PM
Distance/Time
Traveled:
112nm/0:35
Distance/Time
To Go:
Arrived

Flight Plot

Page will automatically refresh every two minutes.

Flight plan parsing failed; only flown route is shown


Map Options




Map Legend


Flown Route
Filed Route
Departure Airport
Arrival Airport
Navaid (VOR, NDB)
Fix

Horizontal Profiles

Position Reports

Time Latitude Longitude Heading Altitude Ground
Speed
20-Jan-20 19:22 45.588501 -122.585739 29 32ft 0kts
20-Jan-20 19:23 45.588501 -122.585739 29 32ft 0kts
20-Jan-20 19:24 45.588501 -122.585739 29 32ft 0kts
20-Jan-20 19:25 45.588501 -122.585739 29 32ft 0kts
20-Jan-20 19:26 45.589802 -122.586571 346 32ft 18kts
20-Jan-20 19:27 45.593304 -122.594995 297 32ft 15kts
20-Jan-20 19:28 45.593859 -122.595999 337 32ft 0kts
20-Jan-20 19:28 45.593859 -122.595999 337 32ft 0kts
20-Jan-20 19:30 45.593933 -122.593487 117 32ft 30kts
20-Jan-20 19:31 45.584438 -122.563821 100 1573ft 93kts
20-Jan-20 19:31 45.582561 -122.529085 99 3550ft 122kts
20-Jan-20 19:32 45.579861 -122.474248 101 5883ft 156kts
20-Jan-20 19:34 45.615167 -122.441476 340 8449ft 202kts
20-Jan-20 19:34 45.658927 -122.448623 358 10179ft 203kts
20-Jan-20 19:35 45.706291 -122.446535 359 12008ft 213kts
20-Jan-20 19:36 45.760161 -122.442745 359 14010ft 219kts
20-Jan-20 19:37 45.827348 -122.437710 359 16417ft 226kts
20-Jan-20 19:38 45.899573 -122.432514 359 16536ft 296kts
20-Jan-20 19:39 45.984442 -122.426654 0 16524ft 307kts
20-Jan-20 19:41 46.086697 -122.418832 0 16524ft 309kts
20-Jan-20 19:41 46.157997 -122.413367 0 16517ft 309kts
20-Jan-20 19:42 46.244679 -122.406725 0 15874ft 324kts
20-Jan-20 19:43 46.335907 -122.399681 0 14090ft 332kts
20-Jan-20 19:44 46.428032 -122.392543 0 12290ft 331kts
20-Jan-20 19:45 46.516220 -122.385777 2 10499ft 313kts
20-Jan-20 19:46 46.599361 -122.396953 349 8697ft 294kts
20-Jan-20 19:47 46.679818 -122.395721 0 6891ft 286kts
20-Jan-20 19:48 46.756394 -122.388163 357 5549ft 260kts
20-Jan-20 19:49 46.823786 -122.386521 0 4528ft 227kts
20-Jan-20 19:50 46.885063 -122.381909 0 3520ft 218kts
20-Jan-20 19:51 46.945420 -122.378323 0 2603ft 212kts
20-Jan-20 19:52 47.000082 -122.374974 0 3005ft 187kts
20-Jan-20 19:53 47.051859 -122.372324 356 3015ft 184kts
20-Jan-20 19:54 47.103100 -122.372790 357 3016ft 184kts
20-Jan-20 19:55 47.154650 -122.373083 357 2947ft 188kts
20-Jan-20 19:56 47.206890 -122.371239 0 2859ft 188kts
20-Jan-20 19:57 47.259073 -122.367292 359 2746ft 188kts
20-Jan-20 19:58 47.311275 -122.367496 358 2584ft 188kts
20-Jan-20 19:59 47.357456 -122.363381 3 2707ft 140kts
20-Jan-20 20:00 47.392949 -122.358973 1 2520ft 124kts
20-Jan-20 20:01 47.427206 -122.357869 2 2249ft 122kts
20-Jan-20 20:02 47.460161 -122.355672 0 1989ft 129kts
20-Jan-20 20:03 47.466962 -122.322860 155 1142ft 111kts
20-Jan-20 20:04 47.446814 -122.318020 180 354ft 51kts
20-Jan-20 20:05 47.441982 -122.316532 150 351ft 0kts
20-Jan-20 20:06 47.439258 -122.315511 214 349ft 3kts
20-Jan-20 20:07 47.439255 -122.315514 214 349ft 0kts
20-Jan-20 20:08 47.439255 -122.315514 214 349ft 0kts
20-Jan-20 20:09 47.439255 -122.315514 214 349ft 0kts
20-Jan-20 20:10 47.439255 -122.315514 214 349ft 0kts
20-Jan-20 20:11 47.439255 -122.315514 214 349ft 0kts

Navigation Log

Ident Type
Flight plan parsing failed, navigation log unavailable